»·PEaware :: N123YB KSBP-KBFL

N123YB :: KSBP-KBFL

FLIGHT INFORMATION

Flight Status: Arrived
Operator: Privately registered:
United States
More flights under this callsign
Pilot: Yonel B. (11973)
Aircraft: CESSNA 172 SKYHAWK
(C172)
More flights by this aircraft type
Origin: KSBP San Luis Co Regl
United States
Destination: KBFL Meadows
United States
More flights between these airports :: More routes between these airports
Route: AVILA3 MQO T329 PRB V248 AVE EHF
File this flight plan on PilotEdge
Remarks: IFR PRACTICE
Altitude:
(Current/Filed)
7,000ft
Speed:
(Current/Filed)
110kts
Departed: 13-Jan-18 09:35 AM
Arrived: 13-Jan-18 10:44 AM
Distance/Time
Traveled:
79nm/1:09
Distance/Time
To Go:
Arrived

Flight Plot

Page will automatically refresh every two minutes.

Flight plan parsing failed; only flown route is shown


Map Options




Map Legend


Flown Route
Filed Route
Departure Airport
Arrival Airport
Navaid (VOR, NDB)
Fix

Horizontal Profiles

Position Reports

Time Latitude Longitude Heading Altitude Ground
Speed
13-Jan-18 08:57 35.239106 -120.641693 226 215ft 0kts
13-Jan-18 08:58 35.239106 -120.641693 226 215ft 0kts
13-Jan-18 08:59 35.239106 -120.641693 226 215ft 0kts
13-Jan-18 09:00 35.239106 -120.641693 226 215ft 0kts
13-Jan-18 09:01 35.239106 -120.641693 226 215ft 0kts
13-Jan-18 09:02 35.239106 -120.641693 226 215ft 0kts
13-Jan-18 09:03 35.239106 -120.641693 226 215ft 0kts
13-Jan-18 09:04 35.239106 -120.641693 226 215ft 0kts
13-Jan-18 09:05 35.239106 -120.641693 226 215ft 0kts
13-Jan-18 09:06 35.239106 -120.641693 226 215ft 0kts
13-Jan-18 09:07 35.239106 -120.641693 226 215ft 0kts
13-Jan-18 09:08 35.239106 -120.641693 226 215ft 0kts
13-Jan-18 09:09 35.239106 -120.641693 226 215ft 0kts
13-Jan-18 09:10 35.239106 -120.641693 226 215ft 0kts
13-Jan-18 09:11 35.239106 -120.641693 226 215ft 0kts
13-Jan-18 09:12 35.239106 -120.641693 226 215ft 0kts
13-Jan-18 09:13 35.239106 -120.641693 226 215ft 0kts
13-Jan-18 09:14 35.239106 -120.641693 226 215ft 0kts
13-Jan-18 09:15 35.239106 -120.641693 226 215ft 0kts
13-Jan-18 09:16 35.239106 -120.641693 226 215ft 0kts
13-Jan-18 09:17 35.239106 -120.641693 226 215ft 0kts
13-Jan-18 09:18 35.239106 -120.641693 226 215ft 0kts
13-Jan-18 09:19 35.239106 -120.641693 226 215ft 0kts
13-Jan-18 09:20 35.239106 -120.641693 226 215ft 0kts
13-Jan-18 09:21 35.239106 -120.641693 226 215ft 0kts
13-Jan-18 09:22 35.239106 -120.641693 226 215ft 0kts
13-Jan-18 09:23 35.239106 -120.641693 226 215ft 0kts
13-Jan-18 09:24 35.239106 -120.641693 226 215ft 0kts
13-Jan-18 09:25 35.239106 -120.641693 226 215ft 0kts
13-Jan-18 09:26 35.239106 -120.641693 226 215ft 0kts
13-Jan-18 09:27 35.239106 -120.641693 226 215ft 0kts
13-Jan-18 09:28 35.239106 -120.641693 226 215ft 0kts
13-Jan-18 09:29 35.239106 -120.641693 226 215ft 0kts
13-Jan-18 09:30 35.239106 -120.641693 226 215ft 0kts
13-Jan-18 09:31 35.239106 -120.641693 226 215ft 0kts
13-Jan-18 09:32 35.239001 -120.641821 235 215ft 1kts
13-Jan-18 09:33 35.239456 -120.642824 305 215ft 3kts
13-Jan-18 09:34 35.240567 -120.644772 306 215ft 12kts
13-Jan-18 09:35 35.241935 -120.647166 305 215ft 4kts
13-Jan-18 09:36 35.242464 -120.648066 302 215ft 0kts
13-Jan-18 09:37 35.242464 -120.648066 302 215ft 0kts
13-Jan-18 09:38 35.242464 -120.648066 302 215ft 0kts
13-Jan-18 09:39 35.242464 -120.648066 302 215ft 0kts
13-Jan-18 09:40 35.242464 -120.648066 302 215ft 0kts
13-Jan-18 09:41 35.240780 -120.646980 125 215ft 53kts
13-Jan-18 09:42 35.226205 -120.633705 207 1243ft 77kts
13-Jan-18 09:43 35.203409 -120.641524 197 2252ft 91kts
13-Jan-18 09:44 35.177900 -120.651989 197 3155ft 98kts
13-Jan-18 09:45 35.150587 -120.657822 191 4007ft 101kts
13-Jan-18 09:46 35.122611 -120.662435 185 4806ft 103kts
13-Jan-18 09:47 35.105181 -120.643053 70 5463ft 105kts
13-Jan-18 09:48 35.116545 -120.611449 69 6189ft 104kts
13-Jan-18 09:49 35.126434 -120.578625 65 6851ft 104kts
13-Jan-18 09:50 35.134993 -120.543787 73 7023ft 115kts
13-Jan-18 09:51 35.142287 -120.506306 72 6993ft 111kts
13-Jan-18 09:52 35.149914 -120.469395 75 6991ft 112kts
13-Jan-18 09:53 35.155462 -120.432472 66 6988ft 109kts
13-Jan-18 09:54 35.164883 -120.396857 73 7019ft 109kts
13-Jan-18 09:55 35.171544 -120.366975 69 7033ft 111kts
13-Jan-18 09:56 35.182045 -120.324659 70 6996ft 111kts
13-Jan-18 09:57 35.192799 -120.289281 69 6972ft 110kts
13-Jan-18 09:58 35.201280 -120.253432 70 6968ft 109kts
13-Jan-18 09:59 35.209540 -120.218407 76 7036ft 108kts
13-Jan-18 10:00 35.214086 -120.188465 67 7064ft 108kts
13-Jan-18 10:01 35.223902 -120.146422 78 7013ft 110kts
13-Jan-18 10:02 35.229527 -120.115181 69 6875ft 113kts
13-Jan-18 10:03 35.237219 -120.072083 71 6880ft 107kts
13-Jan-18 10:04 35.244672 -120.044060 68 7042ft 106kts
13-Jan-18 10:05 35.254593 -120.008759 69 6997ft 112kts
13-Jan-18 10:06 35.263706 -119.972755 69 7002ft 110kts
13-Jan-18 10:07 35.273202 -119.936805 69 6985ft 111kts
13-Jan-18 10:08 35.282594 -119.900995 67 6994ft 110kts
13-Jan-18 10:09 35.293277 -119.865987 70 6997ft 111kts
13-Jan-18 10:10 35.301631 -119.829547 71 7002ft 111kts
13-Jan-18 10:11 35.311124 -119.793531 73 7008ft 111kts
13-Jan-18 10:12 35.322063 -119.758237 71 7017ft 111kts
13-Jan-18 10:13 35.331367 -119.722189 72 7026ft 111kts
13-Jan-18 10:14 35.338977 -119.685439 68 7032ft 111kts
13-Jan-18 10:15 35.348260 -119.649154 70 7043ft 112kts
13-Jan-18 10:16 35.355996 -119.612088 77 7053ft 112kts
13-Jan-18 10:17 35.350631 -119.574307 109 7048ft 115kts
13-Jan-18 10:18 35.344554 -119.536074 100 7048ft 115kts
13-Jan-18 10:19 35.336665 -119.498241 112 7061ft 115kts
13-Jan-18 10:20 35.330111 -119.460101 102 7068ft 114kts
13-Jan-18 10:21 35.322380 -119.422060 104 7040ft 117kts
13-Jan-18 10:22 35.314866 -119.383416 101 7010ft 116kts
13-Jan-18 10:23 35.307762 -119.344821 102 6989ft 115kts
13-Jan-18 10:24 35.301100 -119.306388 98 6985ft 115kts
13-Jan-18 10:25 35.295166 -119.267982 102 6987ft 115kts
13-Jan-18 10:26 35.287531 -119.229883 100 6988ft 115kts
13-Jan-18 10:27 35.280159 -119.191855 98 6990ft 114kts
13-Jan-18 10:28 35.272885 -119.153686 104 6990ft 115kts
13-Jan-18 10:29 35.266212 -119.115459 104 6992ft 115kts
13-Jan-18 10:30 35.257632 -119.077729 108 6872ft 116kts
13-Jan-18 10:31 35.247057 -119.039167 100 6177ft 121kts
13-Jan-18 10:32 35.239060 -118.999973 102 5571ft 118kts
13-Jan-18 10:33 35.230628 -118.961432 103 5122ft 113kts
13-Jan-18 10:34 35.221400 -118.922815 97 4646ft 120kts
13-Jan-18 10:35 35.242258 -118.898443 10 3924ft 119kts
13-Jan-18 10:36 35.274980 -118.890565 11 3341ft 119kts
13-Jan-18 10:37 35.307020 -118.883949 8 3098ft 114kts
13-Jan-18 10:38 35.337262 -118.888702 296 2939ft 121kts
13-Jan-18 10:39 35.319236 -118.906859 185 3339ft 115kts
13-Jan-18 10:40 35.287414 -118.915281 197 3054ft 121kts
13-Jan-18 10:41 35.259079 -118.911242 102 2931ft 113kts
13-Jan-18 10:42 35.279341 -118.899119 342 3347ft 102kts
13-Jan-18 10:43 35.306250 -118.910377 331 3263ft 107kts
13-Jan-18 10:44 35.332158 -118.930278 325 2754ft 109kts
13-Jan-18 10:45 35.352474 -118.957034 309 2335ft 108kts
13-Jan-18 10:46 35.373455 -118.982254 318 1729ft 102kts
13-Jan-18 10:47 35.393198 -119.006750 317 1292ft 101kts
13-Jan-18 10:48 35.411667 -119.029079 316 1168ft 106kts
13-Jan-18 10:49 35.432417 -119.054630 319 529ft 86kts
13-Jan-18 10:50 35.438135 -119.060111 49 510ft 0kts
13-Jan-18 10:51 35.437943 -119.058895 124 510ft 0kts
13-Jan-18 10:52 35.437528 -119.056462 121 510ft 10kts
13-Jan-18 10:53 35.436428 -119.054742 55 510ft 2kts
13-Jan-18 10:54 35.436452 -119.054709 48 510ft 0kts
13-Jan-18 10:55 35.436452 -119.054709 48 510ft 0kts
13-Jan-18 10:56 35.436452 -119.054709 48 510ft 0kts
13-Jan-18 10:57 35.436452 -119.054709 48 510ft 0kts

Navigation Log

Ident Type
Flight plan parsing failed, navigation log unavailable